Time;durP1;ratioP1;P1;durP2;ratioP2;P2;SDS_P1;SDS_P2;PMS_P1;PMS_P2;Temp;Humidity;BMP_temperature;BMP_pressure;BME280_temperature;BME280_humidity;BME280_pressure;Samples;Min_cycle;Max_cycle;Signal;HPM_P1;HPM_P2
2021/04/16 00:03:00;;;;;;;10.32;4.40;;;;;;;2.18;70.89;101248.19;20737056;28;20105;-67
2021/04/16 00:13:03;;;;;;;9.15;4.13;;;;;;;2.06;71.43;101236.19;20737184;28;20054;-67
2021/04/16 00:23:04;;;;;;;9.65;3.90;;;;;;;2.08;71.45;101233.63;20736174;28;20248;-66
2021/04/16 00:33:05;;;;;;;10.77;4.55;;;;;;;2.17;71.25;101228.38;20734656;28;20585;-68
2021/04/16 00:43:07;;;;;;;10.13;4.40;;;;;;;2.07;71.90;101219.00;20758835;28;20081;-66
2021/04/16 00:53:08;;;;;;;7.10;3.67;;;;;;;2.06;71.74;101207.78;20817198;28;20046;-68
2021/04/16 01:03:10;;;;;;;8.00;3.97;;;;;;;2.08;72.18;101205.22;20758858;28;20052;-68
2021/04/16 01:13:12;;;;;;;8.02;3.45;;;;;;;2.08;72.33;101203.47;20735310;28;20054;-67
2021/04/16 01:23:35;;;;;;;8.35;3.92;;;;;;;2.00;73.48;101199.22;20735258;28;20410;-67
2021/04/16 01:33:37;;;;;;;7.97;4.25;;;;;;;2.07;73.27;101186.28;20736204;28;20050;-68
2021/04/16 01:43:42;;;;;;;6.63;3.22;;;;;;;1.97;74.49;101188.94;20748501;28;20486;-68
2021/04/16 01:53:43;;;;;;;11.40;4.07;;;;;;;1.90;74.93;101187.25;20748456;28;20053;-67
2021/04/16 02:03:44;;;;;;;7.15;3.67;;;;;;;1.83;75.91;101180.44;20746952;28;20050;-67
2021/04/16 02:13:45;;;;;;;7.80;3.50;;;;;;;1.85;76.11;101176.94;20746951;28;20046;-67
2021/04/16 02:23:46;;;;;;;7.10;3.90;;;;;;;1.86;75.84;101173.50;20745793;28;20081;-68
2021/04/16 02:33:47;;;;;;;11.30;4.57;;;;;;;1.90;76.50;101172.63;20744404;28;20057;-68
2021/04/16 02:43:49;;;;;;;7.95;4.30;;;;;;;1.84;76.89;101169.22;20818748;28;20489;-68
2021/04/16 02:53:50;;;;;;;9.23;4.45;;;;;;;1.72;77.53;101162.44;20825879;28;20096;-67
2021/04/16 03:03:52;;;;;;;7.07;4.28;;;;;;;1.62;78.25;101156.47;20760235;28;20077;-67
2021/04/16 03:13:54;;;;;;;7.75;4.20;;;;;;;1.48;79.36;101157.38;20742124;28;20494;-67
2021/04/16 03:23:56;;;;;;;8.82;4.82;;;;;;;1.48;79.72;101159.94;20741624;28;20485;-67
2021/04/16 03:33:58;;;;;;;9.57;4.68;;;;;;;1.45;80.73;101152.25;20739851;28;20050;-68
2021/04/16 03:43:59;;;;;;;11.63;5.80;;;;;;;1.51;81.01;101153.06;20740613;28;20521;-67
2021/04/16 03:54:01;;;;;;;13.38;5.13;;;;;;;1.41;81.78;101148.84;20739453;28;20446;-67
2021/04/16 04:04:02;;;;;;;9.23;5.07;;;;;;;1.33;82.40;101158.31;20737920;28;20418;-68
2021/04/16 04:14:03;;;;;;;9.57;4.90;;;;;;;1.19;81.57;101155.81;20738068;28;20046;-68
2021/04/16 04:24:05;;;;;;;11.95;5.70;;;;;;;0.84;84.05;101148.19;20737445;28;20057;-68
2021/04/16 04:34:06;;;;;;;11.43;5.80;;;;;;;0.91;83.82;101163.63;20736277;28;20054;-68
2021/04/16 04:44:08;;;;;;;11.05;5.78;;;;;;;0.96;84.29;101161.91;20738037;28;20061;-67
2021/04/16 04:54:09;;;;;;;12.30;6.47;;;;;;;1.25;83.77;101170.38;20736447;28;20054;-67
2021/04/16 05:04:10;;;;;;;15.15;6.45;;;;;;;1.40;82.85;101170.31;20735554;28;20077;-68
2021/04/16 05:14:11;;;;;;;11.50;6.35;;;;;;;1.68;82.88;101177.03;20748160;28;20489;-68
2021/04/16 05:24:13;;;;;;;14.88;7.32;;;;;;;1.78;84.21;101174.44;20750596;28;20093;-68
2021/04/16 05:34:14;;;;;;;13.73;7.72;;;;;;;1.95;83.06;101177.75;20748636;28;20050;-67
2021/04/16 05:44:15;;;;;;;16.27;7.68;;;;;;;2.19;83.02;101169.81;20751127;28;20046;-67
2021/04/16 05:54:17;;;;;;;16.35;9.23;;;;;;;2.42;81.99;101180.84;20752637;28;20054;-66
2021/04/16 06:04:20;;;;;;;18.75;8.93;;;;;;;2.67;81.80;101178.88;20760957;28;20053;-66
2021/04/16 06:14:21;;;;;;;15.55;8.70;;;;;;;2.84;81.38;101181.31;20772879;28;20053;-66
2021/04/16 06:24:22;;;;;;;17.63;9.20;;;;;;;2.98;81.46;101184.59;20730589;28;20056;-66
2021/04/16 06:34:23;;;;;;;15.38;8.80;;;;;;;3.08;81.93;101181.06;20729735;28;20042;-66
2021/04/16 06:44:30;;;;;;;16.30;9.63;;;;;;;3.18;79.65;101187.84;20747416;28;20049;-66
2021/04/16 06:54:44;;;;;;;18.75;10.45;;;;;;;3.23;81.08;101169.66;20731076;28;20041;-66
2021/04/16 07:04:53;;;;;;;16.25;9.77;;;;;;;3.32;82.99;101175.59;20720899;28;20088;-66
2021/04/16 07:14:57;;;;;;;17.30;10.02;;;;;;;3.39;81.12;101179.81;20722217;28;20067;-66
2021/04/16 07:24:59;;;;;;;16.57;9.83;;;;;;;3.32;80.99;101182.47;20726338;28;20116;-66
2021/04/16 07:35:33;;;;;;;18.35;9.93;;;;;;;3.27;80.40;101190.31;20720209;28;20121;-67
2021/04/16 07:45:48;;;;;;;16.05;9.68;;;;;;;3.41;80.05;101191.00;20705046;28;20050;-66
2021/04/16 07:56:07;;;;;;;15.82;9.63;;;;;;;3.66;78.37;101193.25;20723436;28;20533;-66
2021/04/16 08:06:27;;;;;;;16.15;9.55;;;;;;;4.06;77.58;101197.03;20736984;28;20462;-67
2021/04/16 08:16:34;;;;;;;15.95;10.25;;;;;;;4.28;75.77;101197.53;20736631;28;20406;-67
2021/04/16 08:26:40;;;;;;;15.65;9.60;;;;;;;5.01;74.24;101204.06;20738279;28;20733;-67
2021/04/16 08:36:43;;;;;;;;;;;;;;;5.60;70.38;101208.06;20729864;28;20125;-67
2021/04/16 08:46:47;;;;;;;14.82;7.85;;;;;;;5.68;67.93;101206.19;20727226;28;19922;-67
2021/04/16 08:56:57;;;;;;;12.13;6.47;;;;;;;6.09;66.36;101187.13;20745770;28;20057;-67
2021/04/16 09:07:00;;;;;;;13.10;6.60;;;;;;;6.49;62.37;101188.75;20748867;28;20513;-67
2021/04/16 09:17:03;;;;;;;10.93;6.72;;;;;;;6.07;64.63;101188.03;20745624;28;20051;-66
2021/04/16 09:27:05;;;;;;;9.65;5.32;;;;;;;5.88;61.80;101180.66;20738596;28;20096;-67
2021/04/16 09:37:32;;;;;;;11.68;4.50;;;;;;;6.23;59.83;101178.97;20746344;28;20053;-66
2021/04/16 09:48:07;;;;;;;10.25;4.20;;;;;;;6.38;57.87;101174.25;20739423;28;20046;-67
2021/04/16 09:58:11;;;;;;;9.27;4.55;;;;;;;7.09;56.90;101168.06;20725131;28;20042;-67
2021/04/16 10:08:24;;;;;;;7.45;4.18;;;;;;;7.56;56.13;101164.97;20734680;28;20092;-67
2021/04/16 10:18:32;;;;;;;10.13;4.25;;;;;;;7.50;55.66;101175.56;20744783;28;20568;-66
2021/04/16 10:40:02;;;;;;;9.30;4.07;;;;;;;6.38;60.20;101165.59;20743611;28;20054;-65
2021/04/16 12:43:15;;;;;;;7.30;3.42;;;;;;;7.99;50.72;101121.94;20759593;28;20071;-66
2021/04/16 12:53:17;;;;;;;6.65;3.78;;;;;;;7.86;50.28;101120.63;20754377;28;20046;-66
2021/04/16 13:03:22;;;;;;;6.93;3.70;;;;;;;7.64;51.34;101115.22;20708201;28;20042;-67
2021/04/16 13:13:23;;;;;;;4.63;2.53;;;;;;;8.08;50.40;101106.84;20736765;28;20052;-67
2021/04/16 13:23:24;;;;;;;4.30;2.15;;;;;;;8.06;49.49;101107.81;20737723;28;20042;-66
2021/04/16 13:33:39;;;;;;;4.85;2.00;;;;;;;7.99;48.56;101101.09;20744804;28;20054;-66
2021/04/16 13:43:42;;;;;;;5.28;2.67;;;;;;;8.29;48.19;101088.78;20721913;28;20050;-66
2021/04/16 13:53:43;;;;;;;4.95;2.00;;;;;;;8.02;48.54;101075.78;20745385;28;20046;-66
2021/04/16 14:03:48;;;;;;;5.53;2.75;;;;;;;8.18;50.33;101078.72;20748266;28;20049;-67
2021/04/16 14:13:49;;;;;;;5.07;2.30;;;;;;;7.88;50.43;101074.50;20747583;28;20049;-66
2021/04/16 14:23:50;;;;;;;4.50;2.28;;;;;;;7.85;49.41;101072.00;20742035;28;20050;-67
2021/04/16 14:33:52;;;;;;;4.25;2.08;;;;;;;7.52;50.41;101064.34;20747439;28;20057;-67
2021/04/16 14:44:17;;;;;;;4.80;2.42;;;;;;;7.21;52.78;101061.00;20741842;28;20057;-67
2021/04/16 14:54:26;;;;;;;5.45;2.47;;;;;;;7.13;53.60;101062.97;20734923;28;20069;-67
2021/04/16 15:04:27;;;;;;;4.68;2.47;;;;;;;7.08;53.47;101060.50;20743522;28;20053;-67
2021/04/16 15:14:30;;;;;;;4.72;2.45;;;;;;;7.10;54.15;101047.44;20742691;28;20053;-67
2021/04/16 15:24:31;;;;;;;7.10;2.90;;;;;;;7.50;53.83;101045.31;20728058;28;20459;-66
2021/04/16 15:54:54;;;;;;;6.13;2.47;;;;;;;7.18;55.00;101040.25;20718843;28;20046;-69
2021/04/16 16:04:55;;;;;;;4.80;2.00;;;;;;;7.01;55.16;101045.13;20728059;28;20046;-68
2021/04/16 16:15:03;;;;;;;6.90;2.00;;;;;;;6.92;55.81;101046.22;20738246;28;20050;-68
2021/04/16 16:25:06;;;;;;;4.72;2.20;;;;;;;6.81;56.66;101056.91;20732562;28;20604;-68
2021/04/16 16:35:12;;;;;;;5.05;2.17;;;;;;;6.88;57.13;101060.22;20735078;28;20049;-68
2021/04/16 16:45:21;;;;;;;6.13;3.20;;;;;;;6.91;57.26;101054.91;20737175;28;20050;-68
2021/04/16 16:55:23;;;;;;;8.20;2.75;;;;;;;6.93;57.83;101057.47;20731077;28;20572;-68
2021/04/16 17:05:25;;;;;;;8.35;3.53;;;;;;;6.75;58.96;101054.53;20741646;28;20061;-68
2021/04/16 17:15:31;;;;;;;7.63;2.97;;;;;;;6.81;57.80;101049.13;20755378;28;20042;-68
2021/04/16 17:25:34;;;;;;;6.38;2.65;;;;;;;6.83;57.65;101068.16;20761999;28;20496;-68
2021/04/16 17:35:36;;;;;;;5.72;2.50;;;;;;;6.64;59.53;101053.97;20779378;28;20104;-68
2021/04/16 17:45:38;;;;;;;6.63;2.50;;;;;;;6.51;59.97;101070.78;20775236;28;20046;-68
2021/04/16 17:55:39;;;;;;;6.28;2.83;;;;;;;6.37;61.30;101078.09;20723331;28;20057;-68
2021/04/16 18:05:40;;;;;;;5.20;3.10;;;;;;;6.31;62.16;101083.44;20746649;28;20125;-68
2021/04/16 18:15:42;;;;;;;9.63;3.95;;;;;;;6.13;63.68;101096.91;20727105;28;20077;-68
2021/04/16 18:25:46;;;;;;;7.45;3.70;;;;;;;6.14;63.91;101101.22;20737391;28;20046;-69
2021/04/16 18:35:51;;;;;;;7.22;3.58;;;;;;;6.11;63.76;101101.28;20739831;28;20494;-68
2021/04/16 18:45:52;;;;;;;8.30;4.00;;;;;;;5.95;65.11;101106.00;20741182;28;20050;-68
2021/04/16 18:55:55;;;;;;;5.72;3.50;;;;;;;6.10;64.44;101102.16;20731176;28;20049;-68
2021/04/16 19:05:57;;;;;;;7.90;3.70;;;;;;;5.99;65.34;101118.88;20733134;28;20486;-68
2021/04/16 19:15:59;;;;;;;11.10;5.15;;;;;;;5.99;65.67;101118.06;20740528;28;20465;-68
2021/04/16 19:26:05;;;;;;;10.27;5.38;;;;;;;5.93;65.71;101124.25;20723484;28;20050;-68
2021/04/16 19:36:11;;;;;;;12.48;5.90;;;;;;;5.90;66.25;101126.91;20721921;28;20630;-69
2021/04/16 19:46:14;;;;;;;10.85;5.25;;;;;;;5.90;66.37;101129.50;20718265;28;20046;-68
2021/04/16 20:27:05;;;;;;;12.82;5.05;;;;;;;5.90;67.57;101137.28;20708354;28;20250;-68
2021/04/16 20:37:07;;;;;;;8.77;3.83;;;;;;;5.79;67.94;101130.63;20719790;28;20042;-68
2021/04/16 20:47:09;;;;;;;7.05;3.72;;;;;;;5.75;68.09;101134.16;20753635;28;20053;-68
2021/04/16 20:57:14;;;;;;;8.68;4.30;;;;;;;5.78;68.39;101132.38;20753818;28;20418;-68
2021/04/16 21:07:21;;;;;;;8.60;4.70;;;;;;;5.73;68.29;101130.75;20753217;28;20093;-69
2021/04/16 21:17:28;;;;;;;8.55;4.93;;;;;;;5.66;68.62;101139.56;20753136;28;20050;-69
2021/04/16 21:27:33;;;;;;;10.27;5.15;;;;;;;5.59;69.44;101134.50;20751824;28;20044;-69
2021/04/16 21:37:36;;;;;;;5.40;3.17;;;;;;;5.55;70.76;101132.00;20750984;28;20101;-68
2021/04/16 21:47:39;;;;;;;8.43;4.30;;;;;;;5.54;70.71;101130.28;20750927;28;20057;-68
2021/04/16 21:57:42;;;;;;;8.13;3.92;;;;;;;5.49;70.73;101121.75;20749432;28;20084;-68
2021/04/16 22:08:12;;;;;;;11.90;4.63;;;;;;;5.51;70.72;101114.78;20717276;28;20101;-68
2021/04/16 22:18:20;;;;;;;18.45;5.15;;;;;;;5.45;70.97;101112.31;20722470;28;20050;-68
2021/04/16 22:28:34;;;;;;;9.05;5.03;;;;;;;5.45;70.77;101110.59;20746283;28;20097;-68
2021/04/16 22:38:35;;;;;;;7.47;4.30;;;;;;;5.40;71.03;101107.25;20795493;28;20045;-68
2021/04/16 22:48:37;;;;;;;9.32;4.78;;;;;;;5.35;71.14;101097.84;20826939;28;20115;-68
2021/04/16 22:58:38;;;;;;;6.68;4.40;;;;;;;5.36;71.62;101086.56;20804818;28;20046;-69
2021/04/16 23:08:43;;;;;;;11.35;4.82;;;;;;;5.36;71.97;101089.16;20741477;28;20042;-69
2021/04/16 23:18:45;;;;;;;7.78;4.78;;;;;;;5.22;72.62;101075.66;20741468;28;20489;-69
2021/04/16 23:28:46;;;;;;;9.65;5.50;;;;;;;5.35;72.12;101061.50;20741859;28;20054;-68
2021/04/16 23:38:47;;;;;;;7.90;4.55;;;;;;;5.13;73.57;101048.13;20740826;28;20097;-68
2021/04/16 23:48:48;;;;;;;8.00;4.97;;;;;;;5.22;72.83;101044.50;20741045;28;20077;-68
2021/04/16 23:58:49;;;;;;;8.35;5.57;;;;;;;5.12;73.14;101039.53;20755265;28;20046;-69
